Terminal Aerodrome Forecast
Issued by NWS Atlanta, GA

Home | Current Version | Previous Version | Text Only | Print | Product List | Glossary On
Versions: 1 2 3 4 5 6 7 8 9 10 11 12 13 14 15 16 17 18 19 20
987
FTUS42 KFFC 192329
TAFCSG
TAF
KCSG 192329Z 2000/2024 35004KT P6SM FEW250
     FM200200 03004KT P6SM FEW250
     FM201000 05003KT 4SM BR FEW250
     FM201400 10004KT P6SM FEW250
     FM201600 13005KT P6SM FEW250=

USA.gov is the U.S. government's official web portal to all federal, state and local government web resources and services.